sensor_id;sensor_type;location;lat;lon;timestamp;P1;durP1;ratioP1;P2;durP2;ratioP2
595;SDS011;19946;49.306;11.350;2023-07-22T00:00:54;0.90;;;0.90;;
595;SDS011;19946;49.306;11.350;2023-07-22T00:03:55;1.00;;;1.00;;
595;SDS011;19946;49.306;11.350;2023-07-22T00:06:55;0.50;;;0.50;;
595;SDS011;19946;49.306;11.350;2023-07-22T00:09:56;0.80;;;0.80;;
595;SDS011;19946;49.306;11.350;2023-07-22T00:12:56;1.17;;;1.17;;
595;SDS011;19946;49.306;11.350;2023-07-22T00:15:56;1.20;;;1.20;;
595;SDS011;19946;49.306;11.350;2023-07-22T00:18:57;0.93;;;0.93;;
595;SDS011;19946;49.306;11.350;2023-07-22T00:21:57;0.80;;;0.80;;
595;SDS011;19946;49.306;11.350;2023-07-22T00:24:57;1.20;;;1.20;;
595;SDS011;19946;49.306;11.350;2023-07-22T00:28:00;1.00;;;1.00;;
595;SDS011;19946;49.306;11.350;2023-07-22T00:31:02;1.10;;;1.10;;
595;SDS011;19946;49.306;11.350;2023-07-22T00:34:03;0.60;;;0.60;;
595;SDS011;19946;49.306;11.350;2023-07-22T00:37:03;0.60;;;0.60;;
595;SDS011;19946;49.306;11.350;2023-07-22T00:40:04;0.70;;;0.70;;
595;SDS011;19946;49.306;11.350;2023-07-22T00:43:06;0.60;;;0.60;;
595;SDS011;19946;49.306;11.350;2023-07-22T00:46:07;0.80;;;0.80;;
595;SDS011;19946;49.306;11.350;2023-07-22T00:49:07;1.17;;;1.17;;
595;SDS011;19946;49.306;11.350;2023-07-22T00:52:08;0.83;;;0.83;;
595;SDS011;19946;49.306;11.350;2023-07-22T00:55:08;1.50;;;1.50;;
595;SDS011;19946;49.306;11.350;2023-07-22T00:58:09;1.00;;;1.00;;
595;SDS011;19946;49.306;11.350;2023-07-22T01:01:09;0.80;;;0.80;;
595;SDS011;19946;49.306;11.350;2023-07-22T01:04:10;0.90;;;0.90;;
595;SDS011;19946;49.306;11.350;2023-07-22T01:07:10;0.60;;;0.60;;
595;SDS011;19946;49.306;11.350;2023-07-22T01:10:12;0.80;;;0.80;;
595;SDS011;19946;49.306;11.350;2023-07-22T01:13:12;0.90;;;0.90;;
595;SDS011;19946;49.306;11.350;2023-07-22T01:16:13;1.10;;;1.10;;
595;SDS011;19946;49.306;11.350;2023-07-22T01:19:13;1.20;;;1.20;;
595;SDS011;19946;49.306;11.350;2023-07-22T01:22:14;0.80;;;0.80;;
595;SDS011;19946;49.306;11.350;2023-07-22T01:25:16;0.73;;;0.73;;
595;SDS011;19946;49.306;11.350;2023-07-22T01:28:16;0.57;;;0.57;;
595;SDS011;19946;49.306;11.350;2023-07-22T01:31:16;0.40;;;0.40;;
595;SDS011;19946;49.306;11.350;2023-07-22T01:34:16;0.60;;;0.60;;
595;SDS011;19946;49.306;11.350;2023-07-22T01:37:17;0.57;;;0.57;;
595;SDS011;19946;49.306;11.350;2023-07-22T01:40:17;0.70;;;0.70;;
595;SDS011;19946;49.306;11.350;2023-07-22T01:43:18;0.50;;;0.50;;
595;SDS011;19946;49.306;11.350;2023-07-22T01:46:18;0.40;;;0.40;;
595;SDS011;19946;49.306;11.350;2023-07-22T01:49:18;0.50;;;0.50;;
595;SDS011;19946;49.306;11.350;2023-07-22T01:52:19;0.50;;;0.50;;
595;SDS011;19946;49.306;11.350;2023-07-22T01:55:19;1.10;;;1.10;;
595;SDS011;19946;49.306;11.350;2023-07-22T01:58:19;1.00;;;1.00;;
595;SDS011;19946;49.306;11.350;2023-07-22T02:01:20;1.50;;;1.50;;
595;SDS011;19946;49.306;11.350;2023-07-22T02:04:20;2.50;;;2.50;;
595;SDS011;19946;49.306;11.350;2023-07-22T02:07:20;1.67;;;1.67;;
595;SDS011;19946;49.306;11.350;2023-07-22T02:10:21;1.37;;;1.37;;
595;SDS011;19946;49.306;11.350;2023-07-22T02:13:21;4.03;;;4.03;;
595;SDS011;19946;49.306;11.350;2023-07-22T02:16:22;3.57;;;3.57;;
595;SDS011;19946;49.306;11.350;2023-07-22T02:19:22;3.80;;;3.80;;
595;SDS011;19946;49.306;11.350;2023-07-22T02:22:22;3.27;;;3.27;;
595;SDS011;19946;49.306;11.350;2023-07-22T02:25:22;5.20;;;5.20;;
595;SDS011;19946;49.306;11.350;2023-07-22T02:28:23;4.53;;;4.53;;
595;SDS011;19946;49.306;11.350;2023-07-22T02:31:24;4.50;;;4.50;;
595;SDS011;19946;49.306;11.350;2023-07-22T02:34:25;3.40;;;3.40;;
595;SDS011;19946;49.306;11.350;2023-07-22T02:37:25;2.73;;;2.73;;
595;SDS011;19946;49.306;11.350;2023-07-22T02:40:26;1.53;;;1.53;;
595;SDS011;19946;49.306;11.350;2023-07-22T02:43:26;0.97;;;0.97;;
595;SDS011;19946;49.306;11.350;2023-07-22T02:46:26;0.40;;;0.40;;
595;SDS011;19946;49.306;11.350;2023-07-22T02:49:27;0.50;;;0.50;;
595;SDS011;19946;49.306;11.350;2023-07-22T02:52:27;0.40;;;0.40;;
595;SDS011;19946;49.306;11.350;2023-07-22T02:55:27;0.60;;;0.60;;
595;SDS011;19946;49.306;11.350;2023-07-22T02:58:28;0.60;;;0.60;;
595;SDS011;19946;49.306;11.350;2023-07-22T03:01:28;0.80;;;0.80;;
595;SDS011;19946;49.306;11.350;2023-07-22T03:04:29;0.77;;;0.77;;
595;SDS011;19946;49.306;11.350;2023-07-22T03:07:29;0.60;;;0.60;;
595;SDS011;19946;49.306;11.350;2023-07-22T03:10:30;1.50;;;1.50;;
595;SDS011;19946;49.306;11.350;2023-07-22T03:13:30;1.50;;;1.50;;
595;SDS011;19946;49.306;11.350;2023-07-22T03:16:30;2.20;;;2.20;;
595;SDS011;19946;49.306;11.350;2023-07-22T03:19:32;2.20;;;2.20;;
595;SDS011;19946;49.306;11.350;2023-07-22T03:22:32;2.63;;;2.63;;
595;SDS011;19946;49.306;11.350;2023-07-22T03:25:32;2.50;;;2.50;;
595;SDS011;19946;49.306;11.350;2023-07-22T03:28:33;2.40;;;2.40;;
595;SDS011;19946;49.306;11.350;2023-07-22T03:31:33;1.30;;;1.30;;
595;SDS011;19946;49.306;11.350;2023-07-22T03:34:34;2.50;;;2.50;;
595;SDS011;19946;49.306;11.350;2023-07-22T03:37:34;2.80;;;2.80;;
595;SDS011;19946;49.306;11.350;2023-07-22T03:40:36;1.90;;;1.90;;
595;SDS011;19946;49.306;11.350;2023-07-22T03:43:37;1.70;;;1.70;;
595;SDS011;19946;49.306;11.350;2023-07-22T03:46:38;2.05;;;2.05;;
595;SDS011;19946;49.306;11.350;2023-07-22T03:49:38;2.67;;;2.67;;
595;SDS011;19946;49.306;11.350;2023-07-22T03:52:38;1.50;;;1.50;;
595;SDS011;19946;49.306;11.350;2023-07-22T03:55:39;1.10;;;1.10;;
595;SDS011;19946;49.306;11.350;2023-07-22T03:58:39;1.50;;;1.50;;
595;SDS011;19946;49.306;11.350;2023-07-22T04:01:39;2.90;;;2.90;;
595;SDS011;19946;49.306;11.350;2023-07-22T04:04:40;1.50;;;1.50;;
595;SDS011;19946;49.306;11.350;2023-07-22T04:07:40;1.30;;;1.30;;
595;SDS011;19946;49.306;11.350;2023-07-22T04:10:40;1.30;;;1.30;;
595;SDS011;19946;49.306;11.350;2023-07-22T04:13:40;1.50;;;1.50;;
595;SDS011;19946;49.306;11.350;2023-07-22T04:16:41;1.90;;;1.90;;
595;SDS011;19946;49.306;11.350;2023-07-22T04:19:41;2.20;;;2.20;;
595;SDS011;19946;49.306;11.350;2023-07-22T04:22:42;1.30;;;1.30;;
595;SDS011;19946;49.306;11.350;2023-07-22T04:25:43;0.63;;;0.63;;
595;SDS011;19946;49.306;11.350;2023-07-22T04:28:44;0.70;;;0.70;;
595;SDS011;19946;49.306;11.350;2023-07-22T04:31:44;0.50;;;0.50;;
595;SDS011;19946;49.306;11.350;2023-07-22T04:34:45;0.60;;;0.60;;
595;SDS011;19946;49.306;11.350;2023-07-22T04:37:45;0.70;;;0.70;;
595;SDS011;19946;49.306;11.350;2023-07-22T04:40:46;0.80;;;0.80;;
595;SDS011;19946;49.306;11.350;2023-07-22T04:43:46;0.80;;;0.80;;
595;SDS011;19946;49.306;11.350;2023-07-22T04:46:47;0.60;;;0.60;;
595;SDS011;19946;49.306;11.350;2023-07-22T04:49:47;0.50;;;0.50;;
595;SDS011;19946;49.306;11.350;2023-07-22T04:52:48;0.40;;;0.40;;
595;SDS011;19946;49.306;11.350;2023-07-22T04:55:48;0.30;;;0.30;;
595;SDS011;19946;49.306;11.350;2023-07-22T04:58:48;0.27;;;0.27;;
595;SDS011;19946;49.306;11.350;2023-07-22T05:01:49;0.30;;;0.30;;
595;SDS011;19946;49.306;11.350;2023-07-22T05:04:49;0.40;;;0.40;;
595;SDS011;19946;49.306;11.350;2023-07-22T05:07:49;0.40;;;0.40;;
595;SDS011;19946;49.306;11.350;2023-07-22T05:10:50;0.40;;;0.40;;
595;SDS011;19946;49.306;11.350;2023-07-22T05:13:50;0.33;;;0.33;;
595;SDS011;19946;49.306;11.350;2023-07-22T05:16:51;0.40;;;0.40;;
595;SDS011;19946;49.306;11.350;2023-07-22T05:19:51;0.30;;;0.30;;
595;SDS011;19946;49.306;11.350;2023-07-22T05:22:51;0.20;;;0.20;;
595;SDS011;19946;49.306;11.350;2023-07-22T05:25:52;0.40;;;0.40;;
595;SDS011;19946;49.306;11.350;2023-07-22T05:28:53;0.40;;;0.40;;
595;SDS011;19946;49.306;11.350;2023-07-22T05:31:53;0.30;;;0.30;;
595;SDS011;19946;49.306;11.350;2023-07-22T05:34:53;0.20;;;0.20;;
595;SDS011;19946;49.306;11.350;2023-07-22T05:37:54;0.20;;;0.20;;
595;SDS011;19946;49.306;11.350;2023-07-22T05:40:54;0.20;;;0.20;;
595;SDS011;19946;49.306;11.350;2023-07-22T05:43:54;0.20;;;0.20;;
595;SDS011;19946;49.306;11.350;2023-07-22T05:46:54;0.20;;;0.20;;
595;SDS011;19946;49.306;11.350;2023-07-22T05:49:55;0.20;;;0.20;;
595;SDS011;19946;49.306;11.350;2023-07-22T05:52:55;0.20;;;0.20;;
595;SDS011;19946;49.306;11.350;2023-07-22T05:55:55;0.20;;;0.20;;
595;SDS011;19946;49.306;11.350;2023-07-22T05:58:55;0.20;;;0.20;;
595;SDS011;19946;49.306;11.350;2023-07-22T06:01:56;0.20;;;0.20;;
595;SDS011;19946;49.306;11.350;2023-07-22T06:04:56;0.20;;;0.20;;
595;SDS011;19946;49.306;11.350;2023-07-22T06:07:56;0.30;;;0.30;;
595;SDS011;19946;49.306;11.350;2023-07-22T06:10:57;0.20;;;0.20;;
595;SDS011;19946;49.306;11.350;2023-07-22T06:13:57;0.40;;;0.40;;
595;SDS011;19946;49.306;11.350;2023-07-22T06:16:57;0.50;;;0.50;;
595;SDS011;19946;49.306;11.350;2023-07-22T06:19:58;0.70;;;0.70;;
595;SDS011;19946;49.306;11.350;2023-07-22T06:22:58;0.70;;;0.70;;
595;SDS011;19946;49.306;11.350;2023-07-22T06:25:58;0.50;;;0.50;;
595;SDS011;19946;49.306;11.350;2023-07-22T06:28:59;0.50;;;0.50;;
595;SDS011;19946;49.306;11.350;2023-07-22T06:31:59;0.50;;;0.50;;
595;SDS011;19946;49.306;11.350;2023-07-22T06:34:59;0.80;;;0.80;;
595;SDS011;19946;49.306;11.350;2023-07-22T06:37:59;0.70;;;0.70;;
595;SDS011;19946;49.306;11.350;2023-07-22T06:40:59;0.83;;;0.83;;
595;SDS011;19946;49.306;11.350;2023-07-22T06:44:00;0.80;;;0.80;;
595;SDS011;19946;49.306;11.350;2023-07-22T06:47:00;0.70;;;0.70;;
595;SDS011;19946;49.306;11.350;2023-07-22T06:50:01;0.90;;;0.90;;
595;SDS011;19946;49.306;11.350;2023-07-22T06:53:02;1.20;;;1.20;;
595;SDS011;19946;49.306;11.350;2023-07-22T06:56:03;1.30;;;1.30;;
595;SDS011;19946;49.306;11.350;2023-07-22T06:59:04;1.10;;;1.10;;
595;SDS011;19946;49.306;11.350;2023-07-22T07:02:04;1.30;;;1.30;;
595;SDS011;19946;49.306;11.350;2023-07-22T07:05:07;1.53;;;1.53;;
595;SDS011;19946;49.306;11.350;2023-07-22T07:08:08;1.30;;;1.30;;
595;SDS011;19946;49.306;11.350;2023-07-22T07:11:10;1.50;;;1.50;;
595;SDS011;19946;49.306;11.350;2023-07-22T07:14:10;1.30;;;1.30;;
595;SDS011;19946;49.306;11.350;2023-07-22T07:17:10;1.70;;;1.70;;
595;SDS011;19946;49.306;11.350;2023-07-22T07:20:11;1.60;;;1.60;;
595;SDS011;19946;49.306;11.350;2023-07-22T07:23:12;1.73;;;1.73;;
595;SDS011;19946;49.306;11.350;2023-07-22T07:26:13;1.80;;;1.80;;
595;SDS011;19946;49.306;11.350;2023-07-22T07:29:13;1.60;;;1.60;;
595;SDS011;19946;49.306;11.350;2023-07-22T07:32:13;1.30;;;1.30;;
595;SDS011;19946;49.306;11.350;2023-07-22T07:35:13;1.43;;;1.43;;
595;SDS011;19946;49.306;11.350;2023-07-22T07:38:14;1.33;;;1.33;;
595;SDS011;19946;49.306;11.350;2023-07-22T07:41:14;1.17;;;1.17;;
595;SDS011;19946;49.306;11.350;2023-07-22T07:44:14;1.20;;;1.20;;
595;SDS011;19946;49.306;11.350;2023-07-22T07:47:14;1.30;;;1.30;;
595;SDS011;19946;49.306;11.350;2023-07-22T07:50:15;1.17;;;1.17;;
595;SDS011;19946;49.306;11.350;2023-07-22T07:53:15;1.03;;;1.03;;
595;SDS011;19946;49.306;11.350;2023-07-22T07:56:16;1.10;;;1.10;;
595;SDS011;19946;49.306;11.350;2023-07-22T07:59:16;1.10;;;1.10;;
595;SDS011;19946;49.306;11.350;2023-07-22T08:02:17;1.20;;;1.20;;
595;SDS011;19946;49.306;11.350;2023-07-22T08:05:17;1.30;;;1.30;;
595;SDS011;19946;49.306;11.350;2023-07-22T08:08:17;1.20;;;1.20;;
595;SDS011;19946;49.306;11.350;2023-07-22T08:11:17;1.20;;;1.20;;
595;SDS011;19946;49.306;11.350;2023-07-22T08:14:18;1.23;;;1.23;;
595;SDS011;19946;49.306;11.350;2023-07-22T08:17:18;1.20;;;1.20;;
595;SDS011;19946;49.306;11.350;2023-07-22T08:20:19;1.00;;;1.00;;
595;SDS011;19946;49.306;11.350;2023-07-22T08:23:19;0.90;;;0.90;;
595;SDS011;19946;49.306;11.350;2023-07-22T08:26:20;1.00;;;1.00;;
595;SDS011;19946;49.306;11.350;2023-07-22T08:29:21;1.07;;;1.07;;
595;SDS011;19946;49.306;11.350;2023-07-22T08:32:22;1.00;;;1.00;;
595;SDS011;19946;49.306;11.350;2023-07-22T08:35:22;0.80;;;0.80;;
595;SDS011;19946;49.306;11.350;2023-07-22T08:38:22;0.80;;;0.80;;
595;SDS011;19946;49.306;11.350;2023-07-22T08:41:22;0.90;;;0.90;;
595;SDS011;19946;49.306;11.350;2023-07-22T08:44:25;0.90;;;0.90;;
595;SDS011;19946;49.306;11.350;2023-07-22T08:47:29;0.80;;;0.80;;
595;SDS011;19946;49.306;11.350;2023-07-22T08:50:29;0.70;;;0.70;;
595;SDS011;19946;49.306;11.350;2023-07-22T08:53:30;0.70;;;0.70;;
595;SDS011;19946;49.306;11.350;2023-07-22T08:56:30;0.70;;;0.70;;
595;SDS011;19946;49.306;11.350;2023-07-22T08:59:30;0.70;;;0.70;;
595;SDS011;19946;49.306;11.350;2023-07-22T09:02:32;0.67;;;0.67;;
595;SDS011;19946;49.306;11.350;2023-07-22T09:05:33;0.60;;;0.60;;
595;SDS011;19946;49.306;11.350;2023-07-22T09:08:34;0.50;;;0.50;;
595;SDS011;19946;49.306;11.350;2023-07-22T09:11:34;0.60;;;0.60;;
595;SDS011;19946;49.306;11.350;2023-07-22T09:14:35;0.60;;;0.60;;
595;SDS011;19946;49.306;11.350;2023-07-22T09:17:37;0.50;;;0.50;;
595;SDS011;19946;49.306;11.350;2023-07-22T09:20:37;0.60;;;0.60;;
595;SDS011;19946;49.306;11.350;2023-07-22T09:23:38;0.63;;;0.63;;
595;SDS011;19946;49.306;11.350;2023-07-22T09:26:40;0.60;;;0.60;;
595;SDS011;19946;49.306;11.350;2023-07-22T09:29:42;0.50;;;0.50;;
595;SDS011;19946;49.306;11.350;2023-07-22T09:32:44;0.70;;;0.70;;
595;SDS011;19946;49.306;11.350;2023-07-22T09:35:46;0.60;;;0.60;;
595;SDS011;19946;49.306;11.350;2023-07-22T09:39:02;0.60;;;0.60;;
595;SDS011;19946;49.306;11.350;2023-07-22T09:42:03;0.63;;;0.63;;
595;SDS011;19946;49.306;11.350;2023-07-22T09:45:03;0.60;;;0.60;;
595;SDS011;19946;49.306;11.350;2023-07-22T09:48:04;0.60;;;0.60;;
595;SDS011;19946;49.306;11.350;2023-07-22T09:51:05;0.60;;;0.60;;
595;SDS011;19946;49.306;11.350;2023-07-22T09:54:06;0.50;;;0.50;;
595;SDS011;19946;49.306;11.350;2023-07-22T09:57:06;0.50;;;0.50;;
595;SDS011;19946;49.306;11.350;2023-07-22T10:00:07;0.50;;;0.50;;
595;SDS011;19946;49.306;11.350;2023-07-22T10:03:12;0.40;;;0.40;;
595;SDS011;19946;49.306;11.350;2023-07-22T10:06:12;0.33;;;0.33;;
595;SDS011;19946;49.306;11.350;2023-07-22T10:09:13;0.40;;;0.40;;
595;SDS011;19946;49.306;11.350;2023-07-22T10:12:15;0.40;;;0.40;;
595;SDS011;19946;49.306;11.350;2023-07-22T10:15:15;0.40;;;0.40;;
595;SDS011;19946;49.306;11.350;2023-07-22T10:18:17;0.40;;;0.40;;
595;SDS011;19946;49.306;11.350;2023-07-22T10:21:20;0.40;;;0.40;;
595;SDS011;19946;49.306;11.350;2023-07-22T10:24:20;0.40;;;0.40;;
595;SDS011;19946;49.306;11.350;2023-07-22T10:27:21;0.30;;;0.30;;
595;SDS011;19946;49.306;11.350;2023-07-22T10:30:21;0.30;;;0.30;;
595;SDS011;19946;49.306;11.350;2023-07-22T10:33:22;0.30;;;0.30;;
595;SDS011;19946;49.306;11.350;2023-07-22T10:36:22;0.30;;;0.30;;
595;SDS011;19946;49.306;11.350;2023-07-22T10:39:28;0.30;;;0.30;;
595;SDS011;19946;49.306;11.350;2023-07-22T10:42:29;0.40;;;0.40;;
595;SDS011;19946;49.306;11.350;2023-07-22T10:45:32;0.40;;;0.40;;
595;SDS011;19946;49.306;11.350;2023-07-22T10:48:36;0.30;;;0.30;;
595;SDS011;19946;49.306;11.350;2023-07-22T10:51:37;0.33;;;0.33;;
595;SDS011;19946;49.306;11.350;2023-07-22T10:54:37;0.30;;;0.30;;
595;SDS011;19946;49.306;11.350;2023-07-22T10:57:47;0.30;;;0.30;;
595;SDS011;19946;49.306;11.350;2023-07-22T11:00:47;0.30;;;0.30;;
595;SDS011;19946;49.306;11.350;2023-07-22T11:04:05;0.40;;;0.40;;
595;SDS011;19946;49.306;11.350;2023-07-22T11:07:05;0.30;;;0.30;;
595;SDS011;19946;49.306;11.350;2023-07-22T11:10:15;0.30;;;0.30;;
595;SDS011;19946;49.306;11.350;2023-07-22T11:13:16;0.30;;;0.30;;
595;SDS011;19946;49.306;11.350;2023-07-22T11:16:16;0.30;;;0.30;;
595;SDS011;19946;49.306;11.350;2023-07-22T11:19:19;0.23;;;0.23;;
595;SDS011;19946;49.306;11.350;2023-07-22T11:22:20;0.40;;;0.40;;
595;SDS011;19946;49.306;11.350;2023-07-22T11:25:20;0.33;;;0.33;;
595;SDS011;19946;49.306;11.350;2023-07-22T11:28:21;0.30;;;0.30;;
595;SDS011;19946;49.306;11.350;2023-07-22T11:31:21;0.20;;;0.20;;
595;SDS011;19946;49.306;11.350;2023-07-22T11:34:22;0.20;;;0.20;;
595;SDS011;19946;49.306;11.350;2023-07-22T11:37:22;0.30;;;0.30;;
595;SDS011;19946;49.306;11.350;2023-07-22T11:40:23;0.20;;;0.20;;
595;SDS011;19946;49.306;11.350;2023-07-22T11:43:32;0.20;;;0.20;;
595;SDS011;19946;49.306;11.350;2023-07-22T11:46:32;0.20;;;0.20;;
595;SDS011;19946;49.306;11.350;2023-07-22T11:49:36;0.20;;;0.20;;
595;SDS011;19946;49.306;11.350;2023-07-22T11:52:36;0.20;;;0.20;;
595;SDS011;19946;49.306;11.350;2023-07-22T11:55:37;0.20;;;0.20;;
595;SDS011;19946;49.306;11.350;2023-07-22T11:58:38;0.20;;;0.20;;
595;SDS011;19946;49.306;11.350;2023-07-22T12:01:39;0.10;;;0.10;;
595;SDS011;19946;49.306;11.350;2023-07-22T12:04:39;0.10;;;0.10;;
595;SDS011;19946;49.306;11.350;2023-07-22T12:07:39;0.13;;;0.13;;
595;SDS011;19946;49.306;11.350;2023-07-22T12:10:40;0.20;;;0.20;;
595;SDS011;19946;49.306;11.350;2023-07-22T12:13:40;0.20;;;0.20;;
595;SDS011;19946;49.306;11.350;2023-07-22T12:16:44;0.10;;;0.10;;
595;SDS011;19946;49.306;11.350;2023-07-22T12:19:51;0.20;;;0.20;;
595;SDS011;19946;49.306;11.350;2023-07-22T12:22:52;0.17;;;0.17;;
595;SDS011;19946;49.306;11.350;2023-07-22T12:25:52;0.10;;;0.10;;
595;SDS011;19946;49.306;11.350;2023-07-22T12:28:54;0.10;;;0.10;;
595;SDS011;19946;49.306;11.350;2023-07-22T12:31:54;0.13;;;0.13;;
595;SDS011;19946;49.306;11.350;2023-07-22T12:34:55;0.10;;;0.10;;
595;SDS011;19946;49.306;11.350;2023-07-22T12:37:55;0.10;;;0.10;;
595;SDS011;19946;49.306;11.350;2023-07-22T12:40:55;0.10;;;0.10;;
595;SDS011;19946;49.306;11.350;2023-07-22T12:43:55;0.17;;;0.17;;
595;SDS011;19946;49.306;11.350;2023-07-22T12:46:55;0.23;;;0.23;;
595;SDS011;19946;49.306;11.350;2023-07-22T12:49:56;0.20;;;0.20;;
595;SDS011;19946;49.306;11.350;2023-07-22T12:52:56;0.10;;;0.10;;
595;SDS011;19946;49.306;11.350;2023-07-22T12:55:56;0.10;;;0.10;;
595;SDS011;19946;49.306;11.350;2023-07-22T12:58:57;0.20;;;0.20;;
595;SDS011;19946;49.306;11.350;2023-07-22T13:01:57;0.17;;;0.17;;
595;SDS011;19946;49.306;11.350;2023-07-22T13:04:58;0.20;;;0.20;;
595;SDS011;19946;49.306;11.350;2023-07-22T13:07:58;0.10;;;0.10;;
595;SDS011;19946;49.306;11.350;2023-07-22T13:11:01;0.10;;;0.10;;
595;SDS011;19946;49.306;11.350;2023-07-22T13:14:02;0.20;;;0.20;;
595;SDS011;19946;49.306;11.350;2023-07-22T13:17:02;0.10;;;0.10;;
595;SDS011;19946;49.306;11.350;2023-07-22T13:20:03;0.17;;;0.17;;
595;SDS011;19946;49.306;11.350;2023-07-22T13:23:11;0.10;;;0.10;;
595;SDS011;19946;49.306;11.350;2023-07-22T13:26:11;0.10;;;0.10;;
595;SDS011;19946;49.306;11.350;2023-07-22T13:29:12;0.20;;;0.20;;
595;SDS011;19946;49.306;11.350;2023-07-22T13:32:12;0.20;;;0.20;;
595;SDS011;19946;49.306;11.350;2023-07-22T13:35:12;0.20;;;0.20;;
595;SDS011;19946;49.306;11.350;2023-07-22T13:38:13;0.10;;;0.10;;
595;SDS011;19946;49.306;11.350;2023-07-22T13:41:13;0.10;;;0.10;;
595;SDS011;19946;49.306;11.350;2023-07-22T13:44:14;0.10;;;0.10;;
595;SDS011;19946;49.306;11.350;2023-07-22T13:47:14;0.17;;;0.13;;
595;SDS011;19946;49.306;11.350;2023-07-22T13:50:14;0.10;;;0.10;;
595;SDS011;19946;49.306;11.350;2023-07-22T13:53:15;0.10;;;0.10;;
595;SDS011;19946;49.306;11.350;2023-07-22T13:56:15;0.10;;;0.10;;
595;SDS011;19946;49.306;11.350;2023-07-22T13:59:15;0.20;;;0.20;;
595;SDS011;19946;49.306;11.350;2023-07-22T14:02:15;0.10;;;0.10;;
595;SDS011;19946;49.306;11.350;2023-07-22T14:05:16;0.10;;;0.10;;
595;SDS011;19946;49.306;11.350;2023-07-22T14:08:16;0.20;;;0.20;;
595;SDS011;19946;49.306;11.350;2023-07-22T14:11:16;0.20;;;0.20;;
595;SDS011;19946;49.306;11.350;2023-07-22T14:14:17;0.20;;;0.20;;
595;SDS011;19946;49.306;11.350;2023-07-22T14:17:18;0.17;;;0.17;;
595;SDS011;19946;49.306;11.350;2023-07-22T14:20:18;0.10;;;0.10;;
595;SDS011;19946;49.306;11.350;2023-07-22T14:23:19;0.10;;;0.10;;
595;SDS011;19946;49.306;11.350;2023-07-22T14:26:19;0.17;;;0.17;;
595;SDS011;19946;49.306;11.350;2023-07-22T14:29:20;0.10;;;0.10;;
595;SDS011;19946;49.306;11.350;2023-07-22T14:32:21;0.20;;;0.20;;
595;SDS011;19946;49.306;11.350;2023-07-22T14:35:21;0.20;;;0.20;;
595;SDS011;19946;49.306;11.350;2023-07-22T14:38:22;0.53;;;0.53;;
595;SDS011;19946;49.306;11.350;2023-07-22T14:41:22;0.20;;;0.20;;
595;SDS011;19946;49.306;11.350;2023-07-22T14:44:23;0.17;;;0.17;;
595;SDS011;19946;49.306;11.350;2023-07-22T14:47:23;0.10;;;0.10;;
595;SDS011;19946;49.306;11.350;2023-07-22T14:50:24;0.13;;;0.13;;
595;SDS011;19946;49.306;11.350;2023-07-22T14:53:24;0.10;;;0.10;;
595;SDS011;19946;49.306;11.350;2023-07-22T14:56:24;0.10;;;0.10;;
595;SDS011;19946;49.306;11.350;2023-07-22T14:59:25;0.10;;;0.10;;
595;SDS011;19946;49.306;11.350;2023-07-22T15:02:26;0.10;;;0.10;;
595;SDS011;19946;49.306;11.350;2023-07-22T15:05:26;0.10;;;0.10;;
595;SDS011;19946;49.306;11.350;2023-07-22T15:08:27;0.10;;;0.10;;
595;SDS011;19946;49.306;11.350;2023-07-22T15:11:27;0.20;;;0.20;;
595;SDS011;19946;49.306;11.350;2023-07-22T15:14:27;0.10;;;0.10;;
595;SDS011;19946;49.306;11.350;2023-07-22T15:17:27;0.27;;;0.20;;
595;SDS011;19946;49.306;11.350;2023-07-22T15:20:30;0.10;;;0.10;;
595;SDS011;19946;49.306;11.350;2023-07-22T15:23:31;0.27;;;0.20;;
595;SDS011;19946;49.306;11.350;2023-07-22T15:26:31;0.13;;;0.13;;
595;SDS011;19946;49.306;11.350;2023-07-22T15:29:31;0.27;;;0.20;;
595;SDS011;19946;49.306;11.350;2023-07-22T15:32:31;0.33;;;0.20;;
595;SDS011;19946;49.306;11.350;2023-07-22T15:35:32;0.13;;;0.10;;
595;SDS011;19946;49.306;11.350;2023-07-22T15:38:32;0.10;;;0.10;;
595;SDS011;19946;49.306;11.350;2023-07-22T15:41:32;0.10;;;0.10;;
595;SDS011;19946;49.306;11.350;2023-07-22T15:44:32;0.10;;;0.10;;
595;SDS011;19946;49.306;11.350;2023-07-22T15:47:33;0.13;;;0.13;;
595;SDS011;19946;49.306;11.350;2023-07-22T15:50:33;0.33;;;0.20;;
595;SDS011;19946;49.306;11.350;2023-07-22T15:53:33;0.13;;;0.13;;
595;SDS011;19946;49.306;11.350;2023-07-22T15:56:33;0.20;;;0.20;;
595;SDS011;19946;49.306;11.350;2023-07-22T15:59:34;0.50;;;0.43;;
595;SDS011;19946;49.306;11.350;2023-07-22T16:02:34;0.13;;;0.13;;
595;SDS011;19946;49.306;11.350;2023-07-22T16:05:34;0.13;;;0.13;;
595;SDS011;19946;49.306;11.350;2023-07-22T16:08:35;0.30;;;0.30;;
595;SDS011;19946;49.306;11.350;2023-07-22T16:11:35;0.20;;;0.17;;
595;SDS011;19946;49.306;11.350;2023-07-22T16:14:35;0.23;;;0.23;;
595;SDS011;19946;49.306;11.350;2023-07-22T16:17:35;0.10;;;0.10;;
595;SDS011;19946;49.306;11.350;2023-07-22T16:20:36;0.10;;;0.10;;
595;SDS011;19946;49.306;11.350;2023-07-22T16:23:36;0.10;;;0.10;;
595;SDS011;19946;49.306;11.350;2023-07-22T16:26:36;0.00;;;0.00;;
595;SDS011;19946;49.306;11.350;2023-07-22T16:29:36;0.45;;;0.45;;
595;SDS011;19946;49.306;11.350;2023-07-22T16:32:37;0.10;;;0.10;;
595;SDS011;19946;49.306;11.350;2023-07-22T16:35:37;0.13;;;0.13;;
595;SDS011;19946;49.306;11.350;2023-07-22T16:38:37;0.10;;;0.10;;
595;SDS011;19946;49.306;11.350;2023-07-22T16:41:37;0.07;;;0.07;;
595;SDS011;19946;49.306;11.350;2023-07-22T16:44:38;0.07;;;0.07;;
595;SDS011;19946;49.306;11.350;2023-07-22T16:47:38;0.07;;;0.07;;
595;SDS011;19946;49.306;11.350;2023-07-22T16:50:38;0.10;;;0.10;;
595;SDS011;19946;49.306;11.350;2023-07-22T16:53:38;0.20;;;0.20;;
595;SDS011;19946;49.306;11.350;2023-07-22T16:56:39;0.00;;;0.00;;
595;SDS011;19946;49.306;11.350;2023-07-22T16:59:40;0.20;;;0.20;;
595;SDS011;19946;49.306;11.350;2023-07-22T17:02:43;0.10;;;0.10;;
595;SDS011;19946;49.306;11.350;2023-07-22T17:05:43;0.10;;;0.10;;
595;SDS011;19946;49.306;11.350;2023-07-22T17:08:43;0.13;;;0.13;;
595;SDS011;19946;49.306;11.350;2023-07-22T17:11:44;0.10;;;0.10;;
595;SDS011;19946;49.306;11.350;2023-07-22T17:14:44;0.07;;;0.07;;
595;SDS011;19946;49.306;11.350;2023-07-22T17:17:44;0.10;;;0.10;;
595;SDS011;19946;49.306;11.350;2023-07-22T17:20:44;0.10;;;0.10;;
595;SDS011;19946;49.306;11.350;2023-07-22T17:23:44;0.07;;;0.07;;
595;SDS011;19946;49.306;11.350;2023-07-22T17:26:45;0.30;;;0.30;;
595;SDS011;19946;49.306;11.350;2023-07-22T17:29:45;0.10;;;0.10;;
595;SDS011;19946;49.306;11.350;2023-07-22T17:32:45;0.20;;;0.20;;
595;SDS011;19946;49.306;11.350;2023-07-22T17:35:48;0.10;;;0.10;;
595;SDS011;19946;49.306;11.350;2023-07-22T17:38:49;0.10;;;0.10;;
595;SDS011;19946;49.306;11.350;2023-07-22T17:41:49;0.10;;;0.10;;
595;SDS011;19946;49.306;11.350;2023-07-22T17:44:49;0.00;;;0.00;;
595;SDS011;19946;49.306;11.350;2023-07-22T17:47:49;0.10;;;0.10;;
595;SDS011;19946;49.306;11.350;2023-07-22T17:50:50;0.13;;;0.13;;
595;SDS011;19946;49.306;11.350;2023-07-22T17:53:50;0.17;;;0.13;;
595;SDS011;19946;49.306;11.350;2023-07-22T17:56:50;0.10;;;0.10;;
595;SDS011;19946;49.306;11.350;2023-07-22T17:59:51;0.10;;;0.10;;
595;SDS011;19946;49.306;11.350;2023-07-22T18:02:51;0.10;;;0.10;;
595;SDS011;19946;49.306;11.350;2023-07-22T18:05:51;0.17;;;0.10;;
595;SDS011;19946;49.306;11.350;2023-07-22T18:08:52;0.10;;;0.10;;
595;SDS011;19946;49.306;11.350;2023-07-22T18:11:52;0.10;;;0.10;;
595;SDS011;19946;49.306;11.350;2023-07-22T18:14:52;0.07;;;0.07;;
595;SDS011;19946;49.306;11.350;2023-07-22T18:17:52;0.03;;;0.03;;
595;SDS011;19946;49.306;11.350;2023-07-22T18:20:53;0.10;;;0.10;;
595;SDS011;19946;49.306;11.350;2023-07-22T18:23:53;0.10;;;0.10;;